Terminal Aerodrome Forecast
Issued by NWS

Current Version | Previous Version | Graphics & Text | Print | Product List | Glossary On
Versions: 1 2 3 4 5 6 7 8 9 10 11 12 13 14 15 16 17 18 19 20
000
FTUS41 KPBZ 241500 AAA
TAFMGW
TAF AMD
KMGW 241500Z 2415/2512 01005KT P6SM BKN070
     FM242200 03005KT P6SM SCT200
     FM250900 13008KT P6SM -RA OVC025=

USA.gov is the U.S. government's official web portal to all federal, state and local government web resources and services.